Time;durP1;ratioP1;P1;durP2;ratioP2;P2;SDS_P1;SDS_P2;PMS_P1;PMS_P2;Temp;Humidity;BMP_temperature;BMP_pressure;BME280_temperature;BME280_humidity;BME280_pressure;Samples;Min_cycle;Max_cycle;Signal;HPM_P1;HPM_P2
2023/09/23 00:05:39;;;;;;;6.5;3.3;;;;;;;20.89;73.06;;;;;
2023/09/23 00:15:40;;;;;;;6.5;3.3;;;;;;;20.76;74.71;;;;;
2023/09/23 00:40:30;;;;;;;6.4;3;;;;;;;20.29;77.43;;;;;
2023/09/23 00:50:24;;;;;;;6.4;3;;;;;;;20.09;78.97;;;;;
2023/09/23 01:01:22;;;;;;;6.4;3;;;;;;;19.59;82.36;;;;;
2023/09/23 01:12:22;;;;;;;9.9;3.5;;;;;;;19.39;82.41;;;;;
2023/09/23 01:22:23;;;;;;;9.9;3.5;;;;;;;19.26;82.25;;;;;
2023/09/23 01:32:22;;;;;;;7.1;3.8;;;;;;;19.02;83.19;;;;;
2023/09/23 01:43:22;;;;;;;7.1;3.8;;;;;;;18.84;84.76;;;;;
2023/09/23 01:54:22;;;;;;;7.1;3.8;;;;;;;18.75;84.87;;;;;
2023/09/23 02:05:24;;;;;;;10.3;3.4;;;;;;;18.92;84.38;;;;;
2023/09/23 02:15:22;;;;;;;10.3;3.4;;;;;;;18.74;86.18;;;;;
2023/09/23 02:25:24;;;;;;;10.3;3.4;;;;;;;18.66;87.76;;;;;
2023/09/23 02:35:25;;;;;;;13.9;9.3;;;;;;;18.51;88.46;;;;;
2023/09/23 02:46:22;;;;;;;13.9;9.3;;;;;;;18.55;88.4;;;;;
2023/09/23 02:56:24;;;;;;;13.9;9.3;;;;;;;18.33;87.72;;;;;
2023/09/23 03:07:25;;;;;;;17.7;14;;;;;;;18.13;86.81;;;;;
2023/09/23 03:18:28;;;;;;;17.7;14;;;;;;;17.85;87.04;;;;;
2023/09/23 03:29:28;;;;;;;17.7;14;;;;;;;17.46;88.05;;;;;
2023/09/23 03:40:25;;;;;;;15.6;10.9;;;;;;;17.49;87.77;;;;;
2023/09/23 03:50:24;;;;;;;15.6;10.9;;;;;;;17.39;88.18;;;;;
2023/09/23 04:00:26;;;;;;;15.6;10.9;;;;;;;17.23;88.55;;;;;
2023/09/23 04:10:24;;;;;;;17.6;14.3;;;;;;;16.97;89.03;;;;;
2023/09/23 04:20:24;;;;;;;17.6;14.3;;;;;;;16.97;88.75;;;;;
2023/09/23 04:31:24;;;;;;;17.6;14.3;;;;;;;16.87;88.98;;;;;
2023/09/23 04:41:24;;;;;;;17.4;12.2;;;;;;;16.89;88.93;;;;;
2023/09/23 04:51:24;;;;;;;17.4;12.2;;;;;;;16.96;88.67;;;;;
2023/09/23 05:01:24;;;;;;;17.4;12.2;;;;;;;16.69;88.32;;;;;
2023/09/23 05:12:24;;;;;;;19.5;15.8;;;;;;;16.62;88.42;;;;;
2023/09/23 05:22:24;;;;;;;19.5;15.8;;;;;;;16.58;88.73;;;;;
2023/09/23 05:33:24;;;;;;;17.4;13.1;;;;;;;16.61;88.7;;;;;
2023/09/23 05:44:24;;;;;;;17.4;13.1;;;;;;;16.76;89.29;;;;;
2023/09/23 05:55:24;;;;;;;17.4;13.1;;;;;;;16.75;88.73;;;;;
2023/09/23 06:06:23;;;;;;;21;15.5;;;;;;;16.57;88.59;;;;;
2023/09/23 06:16:24;;;;;;;21;15.5;;;;;;;16.48;87.88;;;;;
2023/09/23 06:26:24;;;;;;;21;15.5;;;;;;;16.56;88.12;;;;;
2023/09/23 06:37:24;;;;;;;13.5;10.2;;;;;;;16.52;87.83;;;;;
2023/09/23 06:47:24;;;;;;;13.5;10.2;;;;;;;16.45;88.02;;;;;
2023/09/23 06:58:24;;;;;;;13.5;10.2;;;;;;;16.54;87.84;;;;;
2023/09/23 07:09:24;;;;;;;19.1;14.3;;;;;;;16.6;88.24;;;;;
2023/09/23 07:20:24;;;;;;;19.1;14.3;;;;;;;16.72;87.76;;;;;
2023/09/23 07:30:24;;;;;;;19.1;14.3;;;;;;;16.74;88;;;;;
2023/09/23 07:41:24;;;;;;;15.7;12.5;;;;;;;16.83;87.94;;;;;
2023/09/23 07:52:24;;;;;;;15.7;12.5;;;;;;;16.88;87.09;;;;;
2023/09/23 08:02:24;;;;;;;15.7;12.5;;;;;;;16.93;86.43;;;;;
2023/09/23 08:12:24;;;;;;;9;6.6;;;;;;;17.04;86.33;;;;;
2023/09/23 08:23:24;;;;;;;9;6.6;;;;;;;16.95;87.23;;;;;
2023/09/23 08:34:24;;;;;;;6.2;3.6;;;;;;;16.83;88.22;;;;;
2023/09/23 08:44:24;;;;;;;6.2;3.6;;;;;;;16.94;88.68;;;;;
2023/09/23 08:55:24;;;;;;;6.2;3.6;;;;;;;16.95;88.47;;;;;
2023/09/23 09:06:29;;;;;;;7.2;4;;;;;;;16.76;88.57;;;;;
2023/09/23 09:16:25;;;;;;;7.2;4;;;;;;;16.86;88.7;;;;;
2023/09/23 09:27:24;;;;;;;7.2;4;;;;;;;16.9;88.74;;;;;
2023/09/23 09:38:25;;;;;;;7.6;4.3;;;;;;;16.87;88.75;;;;;
2023/09/23 09:49:24;;;;;;;7.6;4.3;;;;;;;16.79;89.05;;;;;
2023/09/23 09:59:25;;;;;;;7.6;4.3;;;;;;;17.36;88.86;;;;;
2023/09/23 10:10:24;;;;;;;7.4;4.7;;;;;;;17.67;87.21;;;;;
2023/09/23 10:20:24;;;;;;;7.4;4.7;;;;;;;17.86;85.4;;;;;
2023/09/23 10:30:26;;;;;;;7.4;4.7;;;;;;;18.13;85.45;;;;;
2023/09/23 10:40:24;;;;;;;6.4;3.3;;;;;;;18.39;83.42;;;;;
2023/09/23 10:51:24;;;;;;;6.4;3.3;;;;;;;18.52;82.3;;;;;
2023/09/23 11:02:24;;;;;;;6.4;3.3;;;;;;;18.41;83.03;;;;;
2023/09/23 11:12:27;;;;;;;5;2.3;;;;;;;18.78;81.12;;;;;
2023/09/23 11:23:24;;;;;;;5;2.3;;;;;;;18.79;81.58;;;;;
2023/09/23 11:33:24;;;;;;;3.3;1.4;;;;;;;19.19;80.57;;;;;
2023/09/23 11:44:24;;;;;;;3.3;1.4;;;;;;;19.21;80.89;;;;;
2023/09/23 11:54:24;;;;;;;3.3;1.4;;;;;;;18.69;81.66;;;;;
2023/09/23 12:05:28;;;;;;;2.8;1.2;;;;;;;18.12;83.14;;;;;
2023/09/23 12:16:24;;;;;;;2.8;1.2;;;;;;;17.68;84.15;;;;;
2023/09/23 12:27:26;;;;;;;2.8;1.2;;;;;;;17.38;85.98;;;;;
2023/09/23 12:38:24;;;;;;;;;;;;;;;;;;;;;
2023/09/23 12:49:24;;;;;;;2.7;1.2;;;;;;;16.8;89.17;;;;;
2023/09/23 13:00:24;;;;;;;2.7;1.2;;;;;;;16.79;89.57;;;;;
2023/09/23 13:10:24;;;;;;;5.4;3.2;;;;;;;16.53;90.06;;;;;
2023/09/23 13:21:24;;;;;;;5.4;3.2;;;;;;;16.69;90;;;;;
2023/09/23 13:31:24;;;;;;;5.4;3.2;;;;;;;16.6;90.29;;;;;
2023/09/23 13:42:24;;;;;;;7.7;4.4;;;;;;;16.72;90.38;;;;;
2023/09/23 13:53:24;;;;;;;7.7;4.4;;;;;;;17.03;89.8;;;;;
2023/09/23 14:03:24;;;;;;;5.9;3.2;;;;;;;17.08;88.74;;;;;
2023/09/23 14:13:24;;;;;;;5.9;3.2;;;;;;;16.93;89.08;;;;;
2023/09/23 14:23:24;;;;;;;5.9;3.2;;;;;;;16.84;89.49;;;;;
2023/09/23 14:33:24;;;;;;;5.1;2.3;;;;;;;16.72;89.25;;;;;
2023/09/23 14:44:24;;;;;;;5.1;2.3;;;;;;;16.66;88.71;;;;;
2023/09/23 14:54:24;;;;;;;5.1;2.3;;;;;;;16.43;88.61;;;;;
2023/09/23 15:04:24;;;;;;;4.8;2;;;;;;;16.36;88.06;;;;;
2023/09/23 15:14:24;;;;;;;4.8;2;;;;;;;16.05;88.13;;;;;
2023/09/23 15:24:24;;;;;;;4.8;2;;;;;;;15.93;86.46;;;;;
2023/09/23 15:35:24;;;;;;;5.3;2.1;;;;;;;16.04;87.38;;;;;
2023/09/23 15:45:24;;;;;;;5.3;2.1;;;;;;;15.97;87.61;;;;;
2023/09/23 15:55:25;;;;;;;5.3;2.1;;;;;;;16.15;87.77;;;;;
2023/09/23 16:06:24;;;;;;;5;2.6;;;;;;;16.05;88.07;;;;;
2023/09/23 16:17:24;;;;;;;5;2.6;;;;;;;16.05;88.17;;;;;
2023/09/23 16:27:24;;;;;;;5;2.6;;;;;;;15.81;88.46;;;;;
2023/09/23 16:37:24;;;;;;;6.2;3.2;;;;;;;15.96;88.39;;;;;
2023/09/23 16:48:24;;;;;;;;;;;;;;;;;;;;;
2023/09/23 16:58:24;;;;;;;;;;;;;;;;;;;;;
2023/09/23 17:09:24;;;;;;;;;;;;;;;;;;;;;
2023/09/23 17:20:25;;;;;;;;;;;;;;;;;;;;;
2023/09/23 17:30:24;;;;;;;;;;;;;;;;;;;;;
2023/09/23 17:41:24;;;;;;;;;;;;;;;;;;;;;
2023/09/23 17:52:24;;;;;;;;;;;;;;;;;;;;;
2023/09/23 18:02:24;;;;;;;;;;;;;;;;;;;;;
2023/09/23 18:12:24;;;;;;;;;;;;;;;;;;;;;
2023/09/23 18:23:24;;;;;;;;;;;;;;;;;;;;;
2023/09/23 18:34:25;;;;;;;7.5;4.7;;;;;;;15.25;89.02;;;;;
2023/09/23 18:45:24;;;;;;;7.5;4.7;;;;;;;15.19;89.49;;;;;
2023/09/23 18:55:24;;;;;;;7.5;4.7;;;;;;;15.38;88.88;;;;;
2023/09/23 19:06:24;;;;;;;7.7;4.8;;;;;;;15.43;88.68;;;;;
2023/09/23 19:16:24;;;;;;;7.7;4.8;;;;;;;15.51;88.72;;;;;
2023/09/23 19:26:24;;;;;;;7.7;4.8;;;;;;;15.46;88.91;;;;;
2023/09/23 19:36:24;;;;;;;9.1;4.9;;;;;;;15.57;88.63;;;;;
2023/09/23 19:47:24;;;;;;;9.1;4.9;;;;;;;15.49;88.55;;;;;
2023/09/23 19:57:25;;;;;;;9.1;4.9;;;;;;;15.23;89.75;;;;;
2023/09/23 20:07:27;;;;;;;8.3;4.8;;;;;;;15.15;90.2;;;;;
2023/09/23 20:18:24;;;;;;;8.3;4.8;;;;;;;15.23;90.25;;;;;
2023/09/23 20:28:24;;;;;;;8.3;4.8;;;;;;;15.29;90.02;;;;;
2023/09/23 20:38:24;;;;;;;8.9;6;;;;;;;15.43;89.82;;;;;
2023/09/23 20:48:24;;;;;;;8.9;6;;;;;;;15.39;89.85;;;;;
2023/09/23 20:59:24;;;;;;;8.9;6;;;;;;;15.38;90.15;;;;;
2023/09/23 21:10:24;;;;;;;9.9;6.7;;;;;;;15.33;90.45;;;;;
2023/09/23 21:21:24;;;;;;;9.9;6.7;;;;;;;15.51;90.32;;;;;
2023/09/23 21:32:24;;;;;;;9.9;6.7;;;;;;;15.36;90.43;;;;;
2023/09/23 21:43:24;;;;;;;12.3;7.5;;;;;;;15.45;90.6;;;;;
2023/09/23 21:53:24;;;;;;;12.3;7.5;;;;;;;15.54;90.29;;;;;
2023/09/23 22:03:24;;;;;;;13.2;10.2;;;;;;;15.63;89.93;;;;;
2023/09/23 22:13:24;;;;;;;13.2;10.2;;;;;;;15.54;90.15;;;;;
2023/09/23 22:24:24;;;;;;;13.2;10.2;;;;;;;15.6;89.86;;;;;
2023/09/23 22:34:24;;;;;;;14.2;9.8;;;;;;;15.69;89.93;;;;;
2023/09/23 22:45:24;;;;;;;14.2;9.8;;;;;;;15.64;90.19;;;;;
2023/09/23 22:56:24;;;;;;;14.2;9.8;;;;;;;15.76;89.87;;;;;
2023/09/23 23:07:24;;;;;;;15;10.7;;;;;;;15.71;89.99;;;;;
2023/09/23 23:17:29;;;;;;;15;10.7;;;;;;;15.65;90.06;;;;;
2023/09/23 23:28:24;;;;;;;15;10.7;;;;;;;15.61;90.45;;;;;
2023/09/23 23:39:24;;;;;;;17.8;12.1;;;;;;;15.68;90.11;;;;;
2023/09/23 23:49:24;;;;;;;17.8;12.1;;;;;;;15.76;90.02;;;;;
